sensor_id;sensor_type;location;lat;lon;timestamp;pressure;altitude;pressure_sealevel;temperature
61977;BMP280;45905;50.570;10.428;2023-12-20T00:00:00;97638.09;;;4.77
61977;BMP280;45905;50.570;10.428;2023-12-20T00:02:31;97637.19;;;4.78
61977;BMP280;45905;50.570;10.428;2023-12-20T00:04:58;97641.53;;;4.76
61977;BMP280;45905;50.570;10.428;2023-12-20T00:07:26;97642.09;;;4.80
61977;BMP280;45905;50.570;10.428;2023-12-20T00:09:54;97644.59;;;4.80
61977;BMP280;45905;50.570;10.428;2023-12-20T00:12:22;97635.84;;;4.75
61977;BMP280;45905;50.570;10.428;2023-12-20T00:14:49;97633.44;;;4.73
61977;BMP280;45905;50.570;10.428;2023-12-20T00:17:17;97633.34;;;4.75
61977;BMP280;45905;50.570;10.428;2023-12-20T00:19:45;97639.25;;;4.74
61977;BMP280;45905;50.570;10.428;2023-12-20T00:22:12;97637.72;;;4.73
61977;BMP280;45905;50.570;10.428;2023-12-20T00:24:40;97638.63;;;4.72
61977;BMP280;45905;50.570;10.428;2023-12-20T00:27:08;97629.50;;;4.71
61977;BMP280;45905;50.570;10.428;2023-12-20T00:29:35;97632.00;;;4.71
61977;BMP280;45905;50.570;10.428;2023-12-20T00:32:03;97635.56;;;4.68
61977;BMP280;45905;50.570;10.428;2023-12-20T00:34:31;97634.75;;;4.68
61977;BMP280;45905;50.570;10.428;2023-12-20T00:36:59;97632.25;;;4.68
61977;BMP280;45905;50.570;10.428;2023-12-20T00:39:26;97633.06;;;4.68
61977;BMP280;45905;50.570;10.428;2023-12-20T00:41:54;97641.38;;;4.69
61977;BMP280;45905;50.570;10.428;2023-12-20T00:44:22;97633.84;;;4.69
61977;BMP280;45905;50.570;10.428;2023-12-20T00:46:49;97636.13;;;4.72
61977;BMP280;45905;50.570;10.428;2023-12-20T00:49:18;97621.84;;;4.72
61977;BMP280;45905;50.570;10.428;2023-12-20T00:51:45;97607.59;;;4.73
61977;BMP280;45905;50.570;10.428;2023-12-20T00:54:14;97613.53;;;4.72
61977;BMP280;45905;50.570;10.428;2023-12-20T00:56:42;97609.56;;;4.69
61977;BMP280;45905;50.570;10.428;2023-12-20T00:59:09;97602.81;;;4.70
61977;BMP280;45905;50.570;10.428;2023-12-20T01:01:38;97607.84;;;4.70
61977;BMP280;45905;50.570;10.428;2023-12-20T01:04:06;97601.91;;;4.71
61977;BMP280;45905;50.570;10.428;2023-12-20T01:06:34;97607.72;;;4.71
61977;BMP280;45905;50.570;10.428;2023-12-20T01:09:02;97606.00;;;4.72
61977;BMP280;45905;50.570;10.428;2023-12-20T01:11:30;97611.81;;;4.72
61977;BMP280;45905;50.570;10.428;2023-12-20T01:13:58;97600.19;;;4.71
61977;BMP280;45905;50.570;10.428;2023-12-20T01:16:25;97602.69;;;4.71
61977;BMP280;45905;50.570;10.428;2023-12-20T01:18:53;97599.41;;;4.71
61977;BMP280;45905;50.570;10.428;2023-12-20T01:21:21;97599.41;;;4.71
61977;BMP280;45905;50.570;10.428;2023-12-20T01:23:48;97601.00;;;4.72
61977;BMP280;45905;50.570;10.428;2023-12-20T01:26:16;97599.41;;;4.71
61977;BMP280;45905;50.570;10.428;2023-12-20T01:28:44;97592.78;;;4.70
61977;BMP280;45905;50.570;10.428;2023-12-20T01:31:11;97588.56;;;4.70
61977;BMP280;45905;50.570;10.428;2023-12-20T01:33:39;97584.34;;;4.71
61977;BMP280;45905;50.570;10.428;2023-12-20T01:36:07;97587.66;;;4.71
61977;BMP280;45905;50.570;10.428;2023-12-20T01:38:35;97591.75;;;4.72
61977;BMP280;45905;50.570;10.428;2023-12-20T01:41:02;97586.56;;;4.74
61977;BMP280;45905;50.570;10.428;2023-12-20T01:43:30;97594.09;;;4.74
61977;BMP280;45905;50.570;10.428;2023-12-20T01:46:07;97606.41;;;4.76
61977;BMP280;45905;50.570;10.428;2023-12-20T01:48:35;97594.78;;;4.75
61977;BMP280;45905;50.570;10.428;2023-12-20T01:51:03;97582.22;;;4.75
61977;BMP280;45905;50.570;10.428;2023-12-20T01:53:31;97588.84;;;4.76
61977;BMP280;45905;50.570;10.428;2023-12-20T01:56:00;97578.94;;;4.75
61977;BMP280;45905;50.570;10.428;2023-12-20T01:58:29;97583.16;;;4.75
61977;BMP280;45905;50.570;10.428;2023-12-20T02:00:57;97575.63;;;4.75
61977;BMP280;45905;50.570;10.428;2023-12-20T02:03:25;97563.19;;;4.73
61977;BMP280;45905;50.570;10.428;2023-12-20T02:05:53;97564.00;;;4.74
61977;BMP280;45905;50.570;10.428;2023-12-20T02:08:21;97558.97;;;4.74
61977;BMP280;45905;50.570;10.428;2023-12-20T02:10:48;97552.13;;;4.75
61977;BMP280;45905;50.570;10.428;2023-12-20T02:13:16;97552.25;;;4.74
61977;BMP280;45905;50.570;10.428;2023-12-20T02:15:44;97558.84;;;4.75
61977;BMP280;45905;50.570;10.428;2023-12-20T02:18:11;97561.38;;;4.75
61977;BMP280;45905;50.570;10.428;2023-12-20T02:20:43;97558.84;;;4.75
61977;BMP280;45905;50.570;10.428;2023-12-20T02:23:10;97563.88;;;4.75
61977;BMP280;45905;50.570;10.428;2023-12-20T02:25:38;97554.75;;;4.74
61977;BMP280;45905;50.570;10.428;2023-12-20T02:28:06;97550.53;;;4.75
61977;BMP280;45905;50.570;10.428;2023-12-20T02:30:34;97554.63;;;4.75
61977;BMP280;45905;50.570;10.428;2023-12-20T02:33:07;97553.03;;;4.75
61977;BMP280;45905;50.570;10.428;2023-12-20T02:35:36;97545.50;;;4.75
61977;BMP280;45905;50.570;10.428;2023-12-20T02:38:03;97545.78;;;4.72
61977;BMP280;45905;50.570;10.428;2023-12-20T02:40:31;97542.38;;;4.73
61977;BMP280;45905;50.570;10.428;2023-12-20T02:42:59;97544.88;;;4.73
61977;BMP280;45905;50.570;10.428;2023-12-20T02:45:27;97534.84;;;4.73
61977;BMP280;45905;50.570;10.428;2023-12-20T02:47:54;97537.19;;;4.74
61977;BMP280;45905;50.570;10.428;2023-12-20T02:50:22;97545.50;;;4.75
61977;BMP280;45905;50.570;10.428;2023-12-20T02:52:50;97545.50;;;4.75
61977;BMP280;45905;50.570;10.428;2023-12-20T02:55:18;97537.06;;;4.75
61977;BMP280;45905;50.570;10.428;2023-12-20T02:57:45;97519.50;;;4.75
61977;BMP280;45905;50.570;10.428;2023-12-20T03:00:14;97520.44;;;4.75
61977;BMP280;45905;50.570;10.428;2023-12-20T03:02:41;97522.28;;;4.73
61977;BMP280;45905;50.570;10.428;2023-12-20T03:05:09;97520.72;;;4.72
61977;BMP280;45905;50.570;10.428;2023-12-20T03:07:37;97508.16;;;4.72
61977;BMP280;45905;50.570;10.428;2023-12-20T03:10:06;97495.88;;;4.69
61977;BMP280;45905;50.570;10.428;2023-12-20T03:12:46;97510.91;;;4.69
61977;BMP280;45905;50.570;10.428;2023-12-20T03:15:14;97539.44;;;4.68
61977;BMP280;45905;50.570;10.428;2023-12-20T03:17:42;97539.44;;;4.68
61977;BMP280;45905;50.570;10.428;2023-12-20T03:20:10;97528.09;;;4.64
61977;BMP280;45905;50.570;10.428;2023-12-20T03:22:38;97511.44;;;4.63
61977;BMP280;45905;50.570;10.428;2023-12-20T03:25:06;97528.22;;;4.62
61977;BMP280;45905;50.570;10.428;2023-12-20T03:27:34;97529.91;;;4.62
61977;BMP280;45905;50.570;10.428;2023-12-20T03:30:01;97531.34;;;4.64
61977;BMP280;45905;50.570;10.428;2023-12-20T03:32:29;97538.75;;;4.66
61977;BMP280;45905;50.570;10.428;2023-12-20T03:34:57;97541.16;;;4.67
61977;BMP280;45905;50.570;10.428;2023-12-20T03:37:25;97539.31;;;4.69
61977;BMP280;45905;50.570;10.428;2023-12-20T03:39:53;97548.53;;;4.69
61977;BMP280;45905;50.570;10.428;2023-12-20T03:42:20;97536.94;;;4.68
61977;BMP280;45905;50.570;10.428;2023-12-20T03:44:47;97536.00;;;4.69
61977;BMP280;45905;50.570;10.428;2023-12-20T03:47:15;97528.47;;;4.69
61977;BMP280;45905;50.570;10.428;2023-12-20T03:49:42;97527.56;;;4.70
61977;BMP280;45905;50.570;10.428;2023-12-20T03:52:10;97529.94;;;4.71
61977;BMP280;45905;50.570;10.428;2023-12-20T03:54:37;97532.34;;;4.73
61977;BMP280;45905;50.570;10.428;2023-12-20T03:57:05;97528.88;;;4.74
61977;BMP280;45905;50.570;10.428;2023-12-20T03:59:37;97538.13;;;4.73
61977;BMP280;45905;50.570;10.428;2023-12-20T04:02:05;97533.91;;;4.74
61977;BMP280;45905;50.570;10.428;2023-12-20T04:04:32;97521.34;;;4.74
61977;BMP280;45905;50.570;10.428;2023-12-20T04:07:00;97525.44;;;4.75
61977;BMP280;45905;50.570;10.428;2023-12-20T04:09:28;97523.84;;;4.74
61977;BMP280;45905;50.570;10.428;2023-12-20T04:11:55;97530.47;;;4.75
61977;BMP280;45905;50.570;10.428;2023-12-20T04:14:23;97517.28;;;4.73
61977;BMP280;45905;50.570;10.428;2023-12-20T04:16:52;97520.72;;;4.72
61977;BMP280;45905;50.570;10.428;2023-12-20T04:19:19;97520.84;;;4.70
61977;BMP280;45905;50.570;10.428;2023-12-20T04:21:48;97530.75;;;4.72
61977;BMP280;45905;50.570;10.428;2023-12-20T04:24:15;97534.16;;;4.71
61977;BMP280;45905;50.570;10.428;2023-12-20T04:26:43;97519.13;;;4.71
61977;BMP280;45905;50.570;10.428;2023-12-20T04:29:11;97532.34;;;4.73
61977;BMP280;45905;50.570;10.428;2023-12-20T04:31:39;97532.06;;;4.75
61977;BMP280;45905;50.570;10.428;2023-12-20T04:34:07;97527.47;;;4.80
61977;BMP280;45905;50.570;10.428;2023-12-20T04:36:35;97531.56;;;4.81
61977;BMP280;45905;50.570;10.428;2023-12-20T04:39:03;97532.19;;;4.83
61977;BMP280;45905;50.570;10.428;2023-12-20T04:41:30;97530.38;;;4.85
61977;BMP280;45905;50.570;10.428;2023-12-20T04:43:58;97531.03;;;4.87
61977;BMP280;45905;50.570;10.428;2023-12-20T04:46:25;97532.34;;;4.91
61977;BMP280;45905;50.570;10.428;2023-12-20T04:48:53;97531.28;;;4.94
61977;BMP280;45905;50.570;10.428;2023-12-20T04:51:21;97533.44;;;4.98
61977;BMP280;45905;50.570;10.428;2023-12-20T04:53:49;97540.03;;;4.99
61977;BMP280;45905;50.570;10.428;2023-12-20T04:56:17;97539.09;;;5.00
61977;BMP280;45905;50.570;10.428;2023-12-20T04:58:44;97544.78;;;5.02
61977;BMP280;45905;50.570;10.428;2023-12-20T05:01:12;97544.00;;;5.01
61977;BMP280;45905;50.570;10.428;2023-12-20T05:03:40;97547.97;;;5.04
61977;BMP280;45905;50.570;10.428;2023-12-20T05:06:09;97547.03;;;5.05
61977;BMP280;45905;50.570;10.428;2023-12-20T05:08:37;97545.34;;;5.05
61977;BMP280;45905;50.570;10.428;2023-12-20T05:11:04;97553.66;;;5.06
61977;BMP280;45905;50.570;10.428;2023-12-20T05:13:32;97561.81;;;5.08
61977;BMP280;45905;50.570;10.428;2023-12-20T05:16:11;97556.69;;;5.09
61977;BMP280;45905;50.570;10.428;2023-12-20T05:18:38;97558.25;;;5.10
61977;BMP280;45905;50.570;10.428;2023-12-20T05:21:06;97555.63;;;5.12
61977;BMP280;45905;50.570;10.428;2023-12-20T05:23:33;97556.31;;;5.13
61977;BMP280;45905;50.570;10.428;2023-12-20T05:26:01;97564.09;;;5.20
61977;BMP280;45905;50.570;10.428;2023-12-20T05:28:29;97563.84;;;5.23
61977;BMP280;45905;50.570;10.428;2023-12-20T05:30:56;97566.06;;;5.26
61977;BMP280;45905;50.570;10.428;2023-12-20T05:33:25;97567.78;;;5.25
61977;BMP280;45905;50.570;10.428;2023-12-20T05:35:52;97566.88;;;5.26
61977;BMP280;45905;50.570;10.428;2023-12-20T05:38:20;97569.25;;;5.28
61977;BMP280;45905;50.570;10.428;2023-12-20T05:40:48;97573.47;;;5.27
61977;BMP280;45905;50.570;10.428;2023-12-20T05:43:15;97571.78;;;5.28
61977;BMP280;45905;50.570;10.428;2023-12-20T05:45:43;97573.47;;;5.27
61977;BMP280;45905;50.570;10.428;2023-12-20T05:48:10;97584.44;;;5.26
61977;BMP280;45905;50.570;10.428;2023-12-20T05:50:38;97590.13;;;5.28
61977;BMP280;45905;50.570;10.428;2023-12-20T05:53:07;97579.19;;;5.29
61977;BMP280;45905;50.570;10.428;2023-12-20T05:55:35;97583.94;;;5.32
61977;BMP280;45905;50.570;10.428;2023-12-20T05:58:02;97579.72;;;5.32
61977;BMP280;45905;50.570;10.428;2023-12-20T06:00:30;97585.25;;;5.36
61977;BMP280;45905;50.570;10.428;2023-12-20T06:02:58;97589.22;;;5.38
61977;BMP280;45905;50.570;10.428;2023-12-20T06:05:26;97586.59;;;5.40
61977;BMP280;45905;50.570;10.428;2023-12-20T06:07:53;97594.13;;;5.40
61977;BMP280;45905;50.570;10.428;2023-12-20T06:10:21;97595.06;;;5.39
61977;BMP280;45905;50.570;10.428;2023-12-20T06:12:49;97598.09;;;5.42
61977;BMP280;45905;50.570;10.428;2023-12-20T06:15:19;97595.59;;;5.42
61977;BMP280;45905;50.570;10.428;2023-12-20T06:17:47;97600.88;;;5.39
61977;BMP280;45905;50.570;10.428;2023-12-20T06:20:16;97597.56;;;5.39
61977;BMP280;45905;50.570;10.428;2023-12-20T06:22:44;97603.50;;;5.38
61977;BMP280;45905;50.570;10.428;2023-12-20T06:25:11;97607.84;;;5.36
61977;BMP280;45905;50.570;10.428;2023-12-20T06:27:38;97607.97;;;5.34
61977;BMP280;45905;50.570;10.428;2023-12-20T06:30:07;97610.66;;;5.33
61977;BMP280;45905;50.570;10.428;2023-12-20T06:32:39;97621.63;;;5.32
61977;BMP280;45905;50.570;10.428;2023-12-20T06:35:07;97621.63;;;5.32
61977;BMP280;45905;50.570;10.428;2023-12-20T06:37:35;97630.06;;;5.31
61977;BMP280;45905;50.570;10.428;2023-12-20T06:40:03;97629.41;;;5.29
61977;BMP280;45905;50.570;10.428;2023-12-20T06:42:31;97634.41;;;5.29
61977;BMP280;45905;50.570;10.428;2023-12-20T06:45:09;97628.72;;;5.27
61977;BMP280;45905;50.570;10.428;2023-12-20T06:47:37;97631.25;;;5.27
61977;BMP280;45905;50.570;10.428;2023-12-20T06:50:05;97640.50;;;5.27
61977;BMP280;45905;50.570;10.428;2023-12-20T06:52:35;97628.22;;;5.24
61977;BMP280;45905;50.570;10.428;2023-12-20T06:55:03;97630.97;;;5.21
61977;BMP280;45905;50.570;10.428;2023-12-20T06:57:32;97633.34;;;5.22
61977;BMP280;45905;50.570;10.428;2023-12-20T06:59:59;97636.91;;;5.20
61977;BMP280;45905;50.570;10.428;2023-12-20T07:02:27;97642.84;;;5.19
61977;BMP280;45905;50.570;10.428;2023-12-20T07:04:57;97655.53;;;5.17
61977;BMP280;45905;50.570;10.428;2023-12-20T07:07:25;97654.72;;;5.17
61977;BMP280;45905;50.570;10.428;2023-12-20T07:09:53;97649.19;;;5.13
61977;BMP280;45905;50.570;10.428;2023-12-20T07:12:21;97646.00;;;5.12
61977;BMP280;45905;50.570;10.428;2023-12-20T07:14:48;97642.03;;;5.09
61977;BMP280;45905;50.570;10.428;2023-12-20T07:17:15;97651.28;;;5.09
61977;BMP280;45905;50.570;10.428;2023-12-20T07:19:43;97652.47;;;5.05
61977;BMP280;45905;50.570;10.428;2023-12-20T07:22:11;97650.19;;;5.02
61977;BMP280;45905;50.570;10.428;2023-12-20T07:24:38;97656.16;;;5.01
61977;BMP280;45905;50.570;10.428;2023-12-20T07:27:06;97664.75;;;4.98
61977;BMP280;45905;50.570;10.428;2023-12-20T07:29:33;97658.94;;;4.98
61977;BMP280;45905;50.570;10.428;2023-12-20T07:32:01;97667.25;;;4.98
61977;BMP280;45905;50.570;10.428;2023-12-20T07:34:29;97652.31;;;4.97
61977;BMP280;45905;50.570;10.428;2023-12-20T07:36:57;97661.44;;;4.98
61977;BMP280;45905;50.570;10.428;2023-12-20T07:39:24;97672.00;;;5.01
61977;BMP280;45905;50.570;10.428;2023-12-20T07:41:52;97665.25;;;5.02
61977;BMP280;45905;50.570;10.428;2023-12-20T07:44:20;97660.25;;;5.02
61977;BMP280;45905;50.570;10.428;2023-12-20T07:46:47;97661.97;;;5.01
61977;BMP280;45905;50.570;10.428;2023-12-20T07:49:16;97667.66;;;5.03
61977;BMP280;45905;50.570;10.428;2023-12-20T07:51:44;97667.78;;;5.02
61977;BMP280;45905;50.570;10.428;2023-12-20T07:54:12;97665.53;;;4.99
61977;BMP280;45905;50.570;10.428;2023-12-20T07:56:40;97681.38;;;4.99
61977;BMP280;45905;50.570;10.428;2023-12-20T07:59:07;97682.44;;;4.97
61977;BMP280;45905;50.570;10.428;2023-12-20T08:01:49;97686.78;;;4.95
61977;BMP280;45905;50.570;10.428;2023-12-20T08:04:17;97690.44;;;4.91
61977;BMP280;45905;50.570;10.428;2023-12-20T08:06:44;97683.19;;;4.88
61977;BMP280;45905;50.570;10.428;2023-12-20T08:09:12;97695.06;;;4.86
61977;BMP280;45905;50.570;10.428;2023-12-20T08:11:39;97705.22;;;4.85
61977;BMP280;45905;50.570;10.428;2023-12-20T08:14:07;97706.03;;;4.85
61977;BMP280;45905;50.570;10.428;2023-12-20T08:16:34;97696.78;;;4.86
61977;BMP280;45905;50.570;10.428;2023-12-20T08:19:03;97700.88;;;4.87
61977;BMP280;45905;50.570;10.428;2023-12-20T08:21:31;97700.09;;;4.86
61977;BMP280;45905;50.570;10.428;2023-12-20T08:24:03;97698.38;;;4.87
61977;BMP280;45905;50.570;10.428;2023-12-20T08:26:31;97709.09;;;4.89
61977;BMP280;45905;50.570;10.428;2023-12-20T08:28:58;97699.84;;;4.89
61977;BMP280;45905;50.570;10.428;2023-12-20T08:31:28;97702.09;;;4.92
61977;BMP280;45905;50.570;10.428;2023-12-20T08:33:56;97722.16;;;4.92
61977;BMP280;45905;50.570;10.428;2023-12-20T08:36:25;97717.03;;;4.94
61977;BMP280;45905;50.570;10.428;2023-12-20T08:38:52;97706.97;;;4.94
61977;BMP280;45905;50.570;10.428;2023-12-20T08:41:20;97703.44;;;4.96
61977;BMP280;45905;50.570;10.428;2023-12-20T08:43:48;97694.06;;;4.98
61977;BMP280;45905;50.570;10.428;2023-12-20T08:46:16;97697.50;;;4.97
61977;BMP280;45905;50.570;10.428;2023-12-20T08:48:44;97702.41;;;4.98
61977;BMP280;45905;50.570;10.428;2023-12-20T08:51:13;97709.13;;;4.98
61977;BMP280;45905;50.570;10.428;2023-12-20T08:53:41;97716.66;;;4.98
61977;BMP280;45905;50.570;10.428;2023-12-20T08:56:09;97717.19;;;5.01
61977;BMP280;45905;50.570;10.428;2023-12-20T08:58:37;97722.09;;;5.03
61977;BMP280;45905;50.570;10.428;2023-12-20T09:01:04;97719.44;;;5.04
61977;BMP280;45905;50.570;10.428;2023-12-20T09:03:32;97728.56;;;5.05
61977;BMP280;45905;50.570;10.428;2023-12-20T09:06:00;97731.59;;;5.09
61977;BMP280;45905;50.570;10.428;2023-12-20T09:08:28;97726.59;;;5.09
61977;BMP280;45905;50.570;10.428;2023-12-20T09:10:55;97738.09;;;5.11
61977;BMP280;45905;50.570;10.428;2023-12-20T09:13:23;97730.44;;;5.13
61977;BMP280;45905;50.570;10.428;2023-12-20T09:15:56;97735.22;;;5.15
61977;BMP280;45905;50.570;10.428;2023-12-20T09:18:24;97731.66;;;5.18
61977;BMP280;45905;50.570;10.428;2023-12-20T09:20:52;97721.59;;;5.18
61977;BMP280;45905;50.570;10.428;2023-12-20T09:23:20;97721.38;;;5.21
61977;BMP280;45905;50.570;10.428;2023-12-20T09:25:47;97722.97;;;5.22
61977;BMP280;45905;50.570;10.428;2023-12-20T09:28:15;97729.44;;;5.24
61977;BMP280;45905;50.570;10.428;2023-12-20T09:30:43;97732.34;;;5.29
61977;BMP280;45905;50.570;10.428;2023-12-20T09:33:13;97738.06;;;5.31
61977;BMP280;45905;50.570;10.428;2023-12-20T09:35:42;97737.78;;;5.34
61977;BMP280;45905;50.570;10.428;2023-12-20T09:38:10;97740.84;;;5.37
61977;BMP280;45905;50.570;10.428;2023-12-20T09:40:41;97744.16;;;5.38
61977;BMP280;45905;50.570;10.428;2023-12-20T09:43:18;97729.88;;;5.38
61977;BMP280;45905;50.570;10.428;2023-12-20T09:45:47;97739.53;;;5.43
61977;BMP280;45905;50.570;10.428;2023-12-20T09:48:18;97730.94;;;5.45
61977;BMP280;45905;50.570;10.428;2023-12-20T09:50:47;97730.69;;;5.48
61977;BMP280;45905;50.570;10.428;2023-12-20T09:53:20;97713.00;;;5.50
61977;BMP280;45905;50.570;10.428;2023-12-20T09:55:53;97717.91;;;5.51
61977;BMP280;45905;50.570;10.428;2023-12-20T09:58:20;97708.50;;;5.53
61977;BMP280;45905;50.570;10.428;2023-12-20T10:00:48;97719.22;;;5.55
61977;BMP280;45905;50.570;10.428;2023-12-20T10:03:22;97713.38;;;5.54
61977;BMP280;45905;50.570;10.428;2023-12-20T10:05:54;97701.75;;;5.53
61977;BMP280;45905;50.570;10.428;2023-12-20T10:08:24;97705.06;;;5.54
61977;BMP280;45905;50.570;10.428;2023-12-20T10:10:52;97712.72;;;5.52
61977;BMP280;45905;50.570;10.428;2023-12-20T10:13:20;97704.94;;;5.55
61977;BMP280;45905;50.570;10.428;2023-12-20T10:15:50;97695.69;;;5.56
61977;BMP280;45905;50.570;10.428;2023-12-20T10:18:18;97683.66;;;5.59
61977;BMP280;45905;50.570;10.428;2023-12-20T10:20:46;97691.84;;;5.61
61977;BMP280;45905;50.570;10.428;2023-12-20T10:23:15;97693.22;;;5.65
61977;BMP280;45905;50.570;10.428;2023-12-20T10:25:43;97689.50;;;5.69
61977;BMP280;45905;50.570;10.428;2023-12-20T10:28:17;97684.22;;;5.72
61977;BMP280;45905;50.570;10.428;2023-12-20T10:30:46;97691.63;;;5.73
61977;BMP280;45905;50.570;10.428;2023-12-20T10:33:27;97678.94;;;5.75
61977;BMP280;45905;50.570;10.428;2023-12-20T10:36:00;97680.53;;;5.76
61977;BMP280;45905;50.570;10.428;2023-12-20T10:38:28;97676.03;;;5.79
61977;BMP280;45905;50.570;10.428;2023-12-20T10:40:58;97674.19;;;5.81
61977;BMP280;45905;50.570;10.428;2023-12-20T10:43:30;97665.59;;;5.84
61977;BMP280;45905;50.570;10.428;2023-12-20T10:45:59;97669.03;;;5.83
61977;BMP280;45905;50.570;10.428;2023-12-20T10:48:28;97672.59;;;5.80
61977;BMP280;45905;50.570;10.428;2023-12-20T10:50:58;97671.66;;;5.81
61977;BMP280;45905;50.570;10.428;2023-12-20T10:53:26;97669.03;;;5.83
61977;BMP280;45905;50.570;10.428;2023-12-20T10:55:55;97678.16;;;5.84
61977;BMP280;45905;50.570;10.428;2023-12-20T10:58:28;97673.13;;;5.84
61977;BMP280;45905;50.570;10.428;2023-12-20T11:01:01;97663.34;;;5.81
61977;BMP280;45905;50.570;10.428;2023-12-20T11:03:36;97670.50;;;5.85
61977;BMP280;45905;50.570;10.428;2023-12-20T11:06:37;97659.75;;;5.83
61977;BMP280;45905;50.570;10.428;2023-12-20T11:12:13;97656.47;;;5.83
61977;BMP280;45905;50.570;10.428;2023-12-20T11:14:53;97650.63;;;5.82
61977;BMP280;45905;50.570;10.428;2023-12-20T11:17:23;97651.19;;;5.86
61977;BMP280;45905;50.570;10.428;2023-12-20T11:22:30;97641.75;;;5.88
61977;BMP280;45905;50.570;10.428;2023-12-20T11:25:09;97640.84;;;5.89
61977;BMP280;45905;50.570;10.428;2023-12-20T11:27:41;97641.38;;;5.92
61977;BMP280;45905;50.570;10.428;2023-12-20T11:30:16;97640.31;;;5.94
61977;BMP280;45905;50.570;10.428;2023-12-20T11:32:46;97641.75;;;5.97
61977;BMP280;45905;50.570;10.428;2023-12-20T11:37:42;97630.78;;;5.98
61977;BMP280;45905;50.570;10.428;2023-12-20T11:40:17;97629.72;;;6.00
61977;BMP280;45905;50.570;10.428;2023-12-20T11:42:49;97624.44;;;6.03
61977;BMP280;45905;50.570;10.428;2023-12-20T11:45:20;97622.84;;;6.02
61977;BMP280;45905;50.570;10.428;2023-12-20T11:47:51;97618.31;;;6.06
61977;BMP280;45905;50.570;10.428;2023-12-20T11:50:22;97620.22;;;6.04
61977;BMP280;45905;50.570;10.428;2023-12-20T11:52:52;97613.03;;;6.09
61977;BMP280;45905;50.570;10.428;2023-12-20T11:55:22;97613.84;;;6.09
61977;BMP280;45905;50.570;10.428;2023-12-20T11:57:51;97608.53;;;6.12
61977;BMP280;45905;50.570;10.428;2023-12-20T12:00:19;97609.97;;;6.14
61977;BMP280;45905;50.570;10.428;2023-12-20T12:03:06;97609.19;;;6.14
61977;BMP280;45905;50.570;10.428;2023-12-20T12:05:33;97614.63;;;6.09
61977;BMP280;45905;50.570;10.428;2023-12-20T12:08:02;97603.50;;;6.12
61977;BMP280;45905;50.570;10.428;2023-12-20T12:10:32;97607.59;;;6.13
61977;BMP280;45905;50.570;10.428;2023-12-20T12:13:00;97609.19;;;6.14
61977;BMP280;45905;50.570;10.428;2023-12-20T12:15:29;97618.44;;;6.13
61977;BMP280;45905;50.570;10.428;2023-12-20T12:17:57;97615.28;;;6.11
61977;BMP280;45905;50.570;10.428;2023-12-20T12:20:26;97623.75;;;6.10
61977;BMP280;45905;50.570;10.428;2023-12-20T12:23:06;97616.88;;;6.12
61977;BMP280;45905;50.570;10.428;2023-12-20T12:25:37;97625.47;;;6.10
61977;BMP280;45905;50.570;10.428;2023-12-20T12:28:11;97619.66;;;6.09
61977;BMP280;45905;50.570;10.428;2023-12-20T12:30:39;97617.94;;;6.10
61977;BMP280;45905;50.570;10.428;2023-12-20T12:33:19;97615.56;;;6.09
61977;BMP280;45905;50.570;10.428;2023-12-20T12:35:47;97601.25;;;6.09
61977;BMP280;45905;50.570;10.428;2023-12-20T12:38:15;97602.84;;;6.10
61977;BMP280;45905;50.570;10.428;2023-12-20T12:40:44;97600.47;;;6.09
61977;BMP280;45905;50.570;10.428;2023-12-20T12:43:12;97594.91;;;6.05
61977;BMP280;45905;50.570;10.428;2023-12-20T12:45:40;97588.69;;;6.00
61977;BMP280;45905;50.570;10.428;2023-12-20T12:48:07;97597.41;;;6.05
61977;BMP280;45905;50.570;10.428;2023-12-20T12:50:35;97589.75;;;6.07
61977;BMP280;45905;50.570;10.428;2023-12-20T12:53:03;97590.41;;;6.09
61977;BMP280;45905;50.570;10.428;2023-12-20T12:55:31;97586.84;;;6.11
61977;BMP280;45905;50.570;10.428;2023-12-20T12:57:59;97571.75;;;6.11
61977;BMP280;45905;50.570;10.428;2023-12-20T13:00:27;97574.53;;;6.08
61977;BMP280;45905;50.570;10.428;2023-12-20T13:02:54;97565.41;;;6.07
61977;BMP280;45905;50.570;10.428;2023-12-20T13:05:22;97567.00;;;6.08
61977;BMP280;45905;50.570;10.428;2023-12-20T13:07:49;97556.13;;;6.08
61977;BMP280;45905;50.570;10.428;2023-12-20T13:10:18;97555.34;;;6.07
61977;BMP280;45905;50.570;10.428;2023-12-20T13:12:46;97556.25;;;6.06
61977;BMP280;45905;50.570;10.428;2023-12-20T13:15:14;97551.38;;;6.05
61977;BMP280;45905;50.570;10.428;2023-12-20T13:17:42;97538.97;;;6.03
61977;BMP280;45905;50.570;10.428;2023-12-20T13:20:10;97527.56;;;6.09
61977;BMP280;45905;50.570;10.428;2023-12-20T13:22:38;97521.47;;;6.11
61977;BMP280;45905;50.570;10.428;2023-12-20T13:25:06;97512.03;;;6.13
61977;BMP280;45905;50.570;10.428;2023-12-20T13:27:33;97510.19;;;6.15
61977;BMP280;45905;50.570;10.428;2023-12-20T13:30:02;97506.38;;;6.11
61977;BMP280;45905;50.570;10.428;2023-12-20T13:32:30;97507.00;;;6.13
61977;BMP280;45905;50.570;10.428;2023-12-20T13:34:58;97505.16;;;6.15
61977;BMP280;45905;50.570;10.428;2023-12-20T13:37:26;97489.16;;;6.16
61977;BMP280;45905;50.570;10.428;2023-12-20T13:39:54;97493.09;;;6.18
61977;BMP280;45905;50.570;10.428;2023-12-20T13:42:22;97500.78;;;6.17
61977;BMP280;45905;50.570;10.428;2023-12-20T13:44:49;97490.47;;;6.20
61977;BMP280;45905;50.570;10.428;2023-12-20T13:47:17;97487.28;;;6.18
61977;BMP280;45905;50.570;10.428;2023-12-20T13:49:48;97491.78;;;6.14
61977;BMP280;45905;50.570;10.428;2023-12-20T13:52:15;97492.44;;;6.16
61977;BMP280;45905;50.570;10.428;2023-12-20T13:54:43;97494.84;;;6.18
61977;BMP280;45905;50.570;10.428;2023-12-20T13:57:11;97480.41;;;6.20
61977;BMP280;45905;50.570;10.428;2023-12-20T13:59:57;97491.09;;;6.22
61977;BMP280;45905;50.570;10.428;2023-12-20T14:02:25;97497.34;;;6.18
61977;BMP280;45905;50.570;10.428;2023-12-20T14:04:54;97503.97;;;6.19
61977;BMP280;45905;50.570;10.428;2023-12-20T14:07:21;97508.06;;;6.20
61977;BMP280;45905;50.570;10.428;2023-12-20T14:09:49;97503.97;;;6.19
61977;BMP280;45905;50.570;10.428;2023-12-20T14:12:17;97498.94;;;6.19
61977;BMP280;45905;50.570;10.428;2023-12-20T14:14:45;97503.97;;;6.19
61977;BMP280;45905;50.570;10.428;2023-12-20T14:17:13;97500.53;;;6.20
61977;BMP280;45905;50.570;10.428;2023-12-20T14:19:40;97503.84;;;6.20
61977;BMP280;45905;50.570;10.428;2023-12-20T14:22:08;97519.56;;;6.22
61977;BMP280;45905;50.570;10.428;2023-12-20T14:24:36;97515.59;;;6.20